sensor_id;sensor_type;location;lat;lon;timestamp;pressure;altitude;pressure_sealevel;temperature;humidity
50364;BME280;36272;59.400;17.982;2024-02-15T00:03:16;101659.56;;;2.89;93.75
50364;BME280;36272;59.400;17.982;2024-02-15T00:08:18;101662.38;;;2.88;93.82
50364;BME280;36272;59.400;17.982;2024-02-15T00:13:22;101654.16;;;2.91;93.73
50364;BME280;36272;59.400;17.982;2024-02-15T00:18:24;101659.56;;;2.89;93.58
50364;BME280;36272;59.400;17.982;2024-02-15T00:23:25;101657.63;;;2.91;93.44
50364;BME280;36272;59.400;17.982;2024-02-15T00:28:27;101655.81;;;2.92;93.54
50364;BME280;36272;59.400;17.982;2024-02-15T00:33:29;101658.88;;;2.87;93.52
50364;BME280;36272;59.400;17.982;2024-02-15T00:38:33;101633.16;;;2.89;93.82
50364;BME280;36272;59.400;17.982;2024-02-15T00:43:36;101646.22;;;2.91;93.60
50364;BME280;36272;59.400;17.982;2024-02-15T00:48:37;101649.69;;;2.91;93.82
50364;BME280;36272;59.400;17.982;2024-02-15T00:53:40;101645.69;;;2.87;93.84
50364;BME280;36272;59.400;17.982;2024-02-15T00:58:41;101647.34;;;2.88;93.74
50364;BME280;36272;59.400;17.982;2024-02-15T01:03:43;101656.25;;;2.87;93.64
50364;BME280;36272;59.400;17.982;2024-02-15T01:08:44;101638.31;;;2.91;93.70
50364;BME280;36272;59.400;17.982;2024-02-15T01:13:46;101639.97;;;2.92;93.76
50364;BME280;36272;59.400;17.982;2024-02-15T01:18:48;101630.50;;;2.89;93.63
50364;BME280;36272;59.400;17.982;2024-02-15T01:23:50;101634.97;;;2.89;93.72
50364;BME280;36272;59.400;17.982;2024-02-15T01:28:55;101629.81;;;2.87;94.01
50364;BME280;36272;59.400;17.982;2024-02-15T01:33:56;101628.03;;;2.88;93.89
50364;BME280;36272;59.400;17.982;2024-02-15T01:38:58;101631.47;;;2.88;93.65
50364;BME280;36272;59.400;17.982;2024-02-15T01:44:00;101628.72;;;2.90;93.80
50364;BME280;36272;59.400;17.982;2024-02-15T01:49:02;101636.78;;;2.88;93.84
50364;BME280;36272;59.400;17.982;2024-02-15T01:54:04;101631.47;;;2.88;93.79
50364;BME280;36272;59.400;17.982;2024-02-15T01:59:06;101632.16;;;2.90;93.85
50364;BME280;36272;59.400;17.982;2024-02-15T02:04:09;101622.56;;;2.89;93.86
50364;BME280;36272;59.400;17.982;2024-02-15T02:09:11;101625.22;;;2.89;93.77
50364;BME280;36272;59.400;17.982;2024-02-15T02:14:16;101622.56;;;2.89;93.85
50364;BME280;36272;59.400;17.982;2024-02-15T02:19:18;101626.19;;;2.88;93.98
50364;BME280;36272;59.400;17.982;2024-02-15T02:24:22;101609.69;;;2.86;94.22
50364;BME280;36272;59.400;17.982;2024-02-15T02:29:24;101623.56;;;2.88;94.08
50364;BME280;36272;59.400;17.982;2024-02-15T02:34:26;101600.44;;;2.90;94.07
50364;BME280;36272;59.400;17.982;2024-02-15T02:39:27;101621.75;;;2.89;93.82
50364;BME280;36272;59.400;17.982;2024-02-15T02:44:32;101621.75;;;2.89;93.93
50364;BME280;36272;59.400;17.982;2024-02-15T02:49:37;101607.56;;;2.90;94.16
50364;BME280;36272;59.400;17.982;2024-02-15T02:54:38;101619.81;;;2.91;94.26
50364;BME280;36272;59.400;17.982;2024-02-15T02:59:40;101619.94;;;2.89;94.06
50364;BME280;36272;59.400;17.982;2024-02-15T03:04:42;101612.00;;;2.89;94.38
50364;BME280;36272;59.400;17.982;2024-02-15T03:09:43;101624.41;;;2.89;94.20
50364;BME280;36272;59.400;17.982;2024-02-15T03:14:45;101622.56;;;2.89;94.24
50364;BME280;36272;59.400;17.982;2024-02-15T03:19:47;101612.97;;;2.88;94.15
50364;BME280;36272;59.400;17.982;2024-02-15T03:24:50;101618.13;;;2.90;94.10
50364;BME280;36272;59.400;17.982;2024-02-15T03:29:51;101620.63;;;2.91;94.25
50364;BME280;36272;59.400;17.982;2024-02-15T03:34:54;101620.78;;;2.90;94.41
50364;BME280;36272;59.400;17.982;2024-02-15T03:39:55;101619.94;;;2.89;94.29
50364;BME280;36272;59.400;17.982;2024-02-15T03:44:57;101639.97;;;2.92;94.28
50364;BME280;36272;59.400;17.982;2024-02-15T03:49:59;101630.38;;;2.91;94.26
50364;BME280;36272;59.400;17.982;2024-02-15T03:55:01;101636.34;;;2.93;94.31
50364;BME280;36272;59.400;17.982;2024-02-15T04:00:03;101635.50;;;2.92;94.19
50364;BME280;36272;59.400;17.982;2024-02-15T04:05:06;101629.53;;;2.90;94.31
50364;BME280;36272;59.400;17.982;2024-02-15T04:10:09;101631.19;;;2.91;94.29
50364;BME280;36272;59.400;17.982;2024-02-15T04:15:10;101640.09;;;2.90;94.29
50364;BME280;36272;59.400;17.982;2024-02-15T04:20:18;101626.75;;;2.92;94.34
50364;BME280;36272;59.400;17.982;2024-02-15T04:25:20;101635.66;;;2.91;94.36
50364;BME280;36272;59.400;17.982;2024-02-15T04:30:24;101631.88;;;2.93;94.27
50364;BME280;36272;59.400;17.982;2024-02-15T04:35:26;101641.75;;;2.91;94.21
50364;BME280;36272;59.400;17.982;2024-02-15T04:40:29;101631.19;;;2.91;94.23
50364;BME280;36272;59.400;17.982;2024-02-15T04:45:30;101627.44;;;2.94;94.28
50364;BME280;36272;59.400;17.982;2024-02-15T04:50:33;101648.72;;;2.92;94.33
50364;BME280;36272;59.400;17.982;2024-02-15T04:55:35;101637.31;;;2.92;94.25
50364;BME280;36272;59.400;17.982;2024-02-15T05:00:36;101647.03;;;2.91;94.51
50364;BME280;36272;59.400;17.982;2024-02-15T05:05:38;101639.97;;;2.92;94.33
50364;BME280;36272;59.400;17.982;2024-02-15T05:10:40;101645.38;;;2.90;94.35
50364;BME280;36272;59.400;17.982;2024-02-15T05:15:42;101641.75;;;2.91;94.55
50364;BME280;36272;59.400;17.982;2024-02-15T05:20:43;101641.91;;;2.90;94.45
50364;BME280;36272;59.400;17.982;2024-02-15T05:25:45;101637.63;;;2.89;94.61
50364;BME280;36272;59.400;17.982;2024-02-15T05:30:46;101634.00;;;2.90;94.37
50364;BME280;36272;59.400;17.982;2024-02-15T05:35:48;101638.13;;;2.92;94.37
50364;BME280;36272;59.400;17.982;2024-02-15T05:40:52;101641.75;;;2.91;94.59
50364;BME280;36272;59.400;17.982;2024-02-15T05:45:53;101643.03;;;2.87;94.59
50364;BME280;36272;59.400;17.982;2024-02-15T05:50:56;101627.88;;;2.89;94.51
50364;BME280;36272;59.400;17.982;2024-02-15T05:55:58;101655.44;;;2.87;94.38
50364;BME280;36272;59.400;17.982;2024-02-15T06:01:01;101649.16;;;2.88;94.52
50364;BME280;36272;59.400;17.982;2024-02-15T06:06:04;101652.63;;;2.88;94.64
50364;BME280;36272;59.400;17.982;2024-02-15T06:11:08;101653.47;;;2.89;94.20
50364;BME280;36272;59.400;17.982;2024-02-15T06:16:11;101677.09;;;2.90;94.53
50364;BME280;36272;59.400;17.982;2024-02-15T06:21:13;101658.59;;;2.90;94.36
50364;BME280;36272;59.400;17.982;2024-02-15T06:26:15;101663.88;;;2.90;94.52
50364;BME280;36272;59.400;17.982;2024-02-15T06:31:16;101669.16;;;2.90;94.41
50364;BME280;36272;59.400;17.982;2024-02-15T06:37:02;101655.66;;;2.93;95.00
50364;BME280;36272;59.400;17.982;2024-02-15T06:42:22;101672.38;;;2.94;94.46
50364;BME280;36272;59.400;17.982;2024-02-15T06:47:24;101664.56;;;2.92;94.25
50364;BME280;36272;59.400;17.982;2024-02-15T06:52:26;101672.88;;;2.97;94.45
50364;BME280;36272;59.400;17.982;2024-02-15T06:57:28;101683.63;;;2.96;94.25
50364;BME280;36272;59.400;17.982;2024-02-15T07:02:29;101673.56;;;3.00;94.48
50364;BME280;36272;59.400;17.982;2024-02-15T07:07:31;101679.53;;;3.02;94.14
50364;BME280;36272;59.400;17.982;2024-02-15T07:12:33;101686.38;;;3.04;94.27
50364;BME280;36272;59.400;17.982;2024-02-15T07:17:35;101695.13;;;3.05;94.35
50364;BME280;36272;59.400;17.982;2024-02-15T07:22:38;101691.50;;;3.06;94.23
50364;BME280;36272;59.400;17.982;2024-02-15T07:27:40;101693.03;;;3.08;94.16
50364;BME280;36272;59.400;17.982;2024-02-15T07:32:41;101691.72;;;3.12;94.15
50364;BME280;36272;59.400;17.982;2024-02-15T07:37:53;101675.72;;;3.14;94.53
50364;BME280;36272;59.400;17.982;2024-02-15T07:42:57;101676.25;;;3.18;94.25
50364;BME280;36272;59.400;17.982;2024-02-15T07:48:05;101674.66;;;3.25;94.30
50364;BME280;36272;59.400;17.982;2024-02-15T07:53:07;101692.75;;;3.30;94.23
50364;BME280;36272;59.400;17.982;2024-02-15T07:58:09;101698.56;;;3.33;94.23
50364;BME280;36272;59.400;17.982;2024-02-15T08:03:11;101684.88;;;3.38;94.17
50364;BME280;36272;59.400;17.982;2024-02-15T08:08:13;101689.84;;;3.41;94.06
50364;BME280;36272;59.400;17.982;2024-02-15T08:13:14;101694.84;;;3.44;93.94
50364;BME280;36272;59.400;17.982;2024-02-15T08:18:16;101696.22;;;3.48;94.03
50364;BME280;36272;59.400;17.982;2024-02-15T08:23:18;101692.28;;;3.52;94.15
50364;BME280;36272;59.400;17.982;2024-02-15T08:28:19;101698.94;;;3.56;93.84
50364;BME280;36272;59.400;17.982;2024-02-15T08:33:22;101691.91;;;3.65;93.88
50364;BME280;36272;59.400;17.982;2024-02-15T08:38:25;101691.16;;;3.73;93.84
50364;BME280;36272;59.400;17.982;2024-02-15T08:43:26;101692.34;;;3.79;93.57
50364;BME280;36272;59.400;17.982;2024-02-15T08:48:28;101686.59;;;3.83;93.80
50364;BME280;36272;59.400;17.982;2024-02-15T08:53:32;101686.66;;;3.92;93.69
50364;BME280;36272;59.400;17.982;2024-02-15T08:58:33;101695.81;;;3.97;93.56
50364;BME280;36272;59.400;17.982;2024-02-15T09:03:36;101690.72;;;4.04;93.65
50364;BME280;36272;59.400;17.982;2024-02-15T09:08:37;101698.41;;;4.15;93.32
50364;BME280;36272;59.400;17.982;2024-02-15T09:13:39;101688.00;;;4.22;93.35
50364;BME280;36272;59.400;17.982;2024-02-15T09:18:41;101694.66;;;4.26;93.40
50364;BME280;36272;59.400;17.982;2024-02-15T09:23:46;101693.19;;;4.32;93.29
50364;BME280;36272;59.400;17.982;2024-02-15T09:28:48;101680.31;;;4.37;93.23
50364;BME280;36272;59.400;17.982;2024-02-15T09:33:50;101689.31;;;4.44;92.95
50364;BME280;36272;59.400;17.982;2024-02-15T09:38:52;101688.03;;;4.57;92.93
50364;BME280;36272;59.400;17.982;2024-02-15T09:43:53;101686.94;;;4.68;92.85
50364;BME280;36272;59.400;17.982;2024-02-15T09:48:56;101672.88;;;4.75;92.82
50364;BME280;36272;59.400;17.982;2024-02-15T09:54:00;101675.97;;;5.05;92.13
50364;BME280;36272;59.400;17.982;2024-02-15T09:59:02;101700.78;;;4.96;92.00
50364;BME280;36272;59.400;17.982;2024-02-15T10:04:05;101675.28;;;4.95;92.16
50364;BME280;36272;59.400;17.982;2024-02-15T10:09:24;101667.31;;;4.95;93.01
50364;BME280;36272;59.400;17.982;2024-02-15T10:14:32;101675.41;;;4.94;92.59
50364;BME280;36272;59.400;17.982;2024-02-15T10:19:40;101672.75;;;4.94;92.58
50364;BME280;36272;59.400;17.982;2024-02-15T10:24:43;101691.31;;;4.94;92.52
50364;BME280;36272;59.400;17.982;2024-02-15T10:29:45;101692.84;;;4.96;92.50
50364;BME280;36272;59.400;17.982;2024-02-15T10:34:46;101686.03;;;5.02;92.33
50364;BME280;36272;59.400;17.982;2024-02-15T10:40:04;101668.81;;;5.06;92.73
50364;BME280;36272;59.400;17.982;2024-02-15T10:45:09;101679.94;;;5.10;91.98
50364;BME280;36272;59.400;17.982;2024-02-15T10:50:12;101680.91;;;5.09;92.17
50364;BME280;36272;59.400;17.982;2024-02-15T10:55:26;101660.88;;;5.14;92.34
50364;BME280;36272;59.400;17.982;2024-02-15T11:00:32;101668.34;;;5.19;91.95
50364;BME280;36272;59.400;17.982;2024-02-15T11:05:40;101663.03;;;5.19;92.16
50364;BME280;36272;59.400;17.982;2024-02-15T11:10:43;101677.28;;;5.18;91.86
50364;BME280;36272;59.400;17.982;2024-02-15T11:15:46;101674.97;;;5.15;92.25
50364;BME280;36272;59.400;17.982;2024-02-15T11:20:50;101672.84;;;5.18;91.79
50364;BME280;36272;59.400;17.982;2024-02-15T11:25:52;101675.31;;;5.20;92.05
50364;BME280;36272;59.400;17.982;2024-02-15T11:30:55;101677.31;;;5.26;91.71
50364;BME280;36272;59.400;17.982;2024-02-15T11:36:16;101666.22;;;5.31;92.42
50364;BME280;36272;59.400;17.982;2024-02-15T11:41:18;101679.31;;;5.32;91.72
50364;BME280;36272;59.400;17.982;2024-02-15T11:46:20;101681.66;;;5.35;91.96
50364;BME280;36272;59.400;17.982;2024-02-15T11:51:32;101676.69;;;5.41;91.94
50364;BME280;36272;59.400;17.982;2024-02-15T11:56:51;101671.69;;;5.38;91.87
50364;BME280;36272;59.400;17.982;2024-02-15T12:01:56;101680.66;;;5.36;91.45
50364;BME280;36272;59.400;17.982;2024-02-15T12:07:16;101690.59;;;5.34;91.90
50364;BME280;36272;59.400;17.982;2024-02-15T12:12:36;101698.56;;;5.34;91.72
50364;BME280;36272;59.400;17.982;2024-02-15T12:18:13;101677.34;;;5.34;92.14
50364;BME280;36272;59.400;17.982;2024-02-15T12:23:34;101693.41;;;5.33;91.71
50364;BME280;36272;59.400;17.982;2024-02-15T12:28:37;101694.56;;;5.30;91.65
50364;BME280;36272;59.400;17.982;2024-02-15T12:33:40;101688.28;;;5.31;91.42
50364;BME280;36272;59.400;17.982;2024-02-15T12:38:41;101692.91;;;5.29;91.61
50364;BME280;36272;59.400;17.982;2024-02-15T12:43:44;101681.81;;;5.26;91.79
50364;BME280;36272;59.400;17.982;2024-02-15T12:48:46;101677.00;;;5.29;91.70
50364;BME280;36272;59.400;17.982;2024-02-15T12:53:48;101671.03;;;5.27;91.70
50364;BME280;36272;59.400;17.982;2024-02-15T12:58:49;101663.72;;;5.29;91.62
50364;BME280;36272;59.400;17.982;2024-02-15T13:03:51;101651.78;;;5.25;91.86
50364;BME280;36272;59.400;17.982;2024-02-15T13:08:53;101656.59;;;5.21;91.91
50364;BME280;36272;59.400;17.982;2024-02-15T13:13:55;101662.72;;;5.22;92.05
50364;BME280;36272;59.400;17.982;2024-02-15T13:18:58;101665.69;;;5.19;91.98
50364;BME280;36272;59.400;17.982;2024-02-15T13:24:00;101672.97;;;5.17;92.35
50364;BME280;36272;59.400;17.982;2024-02-15T13:29:06;101671.31;;;5.16;92.25
50364;BME280;36272;59.400;17.982;2024-02-15T13:34:07;101670.97;;;5.11;92.32
50364;BME280;36272;59.400;17.982;2024-02-15T13:39:09;101675.59;;;5.09;92.26
50364;BME280;36272;59.400;17.982;2024-02-15T13:44:11;101692.53;;;5.08;92.44
50364;BME280;36272;59.400;17.982;2024-02-15T13:49:12;101689.38;;;5.04;92.48
50364;BME280;36272;59.400;17.982;2024-02-15T13:54:14;101686.72;;;5.04;92.20
50364;BME280;36272;59.400;17.982;2024-02-15T13:59:16;101682.59;;;5.01;92.19
50364;BME280;36272;59.400;17.982;2024-02-15T14:04:17;101684.03;;;4.96;92.31
50364;BME280;36272;59.400;17.982;2024-02-15T14:09:19;101678.25;;;4.92;92.39
50364;BME280;36272;59.400;17.982;2024-02-15T14:14:21;101693.31;;;4.91;92.50
50364;BME280;36272;59.400;17.982;2024-02-15T14:19:23;101697.13;;;4.89;92.48
50364;BME280;36272;59.400;17.982;2024-02-15T14:24:27;101692.13;;;4.86;92.75
50364;BME280;36272;59.400;17.982;2024-02-15T14:29:29;101679.50;;;4.80;92.88
50364;BME280;36272;59.400;17.982;2024-02-15T14:34:34;101675.53;;;4.75;93.04
50364;BME280;36272;59.400;17.982;2024-02-15T14:39:37;101682.31;;;4.70;93.16
50364;BME280;36272;59.400;17.982;2024-02-15T14:44:39;101673.81;;;4.66;93.03
50364;BME280;36272;59.400;17.982;2024-02-15T14:49:40;101676.97;;;4.61;93.06
50364;BME280;36272;59.400;17.982;2024-02-15T14:54:42;101681.59;;;4.59;93.10
50364;BME280;36272;59.400;17.982;2024-02-15T14:59:43;101684.88;;;4.53;93.07
50364;BME280;36272;59.400;17.982;2024-02-15T15:04:45;101683.19;;;4.52;93.30
50364;BME280;36272;59.400;17.982;2024-02-15T15:10:19;101683.50;;;4.49;93.09
50364;BME280;36272;59.400;17.982;2024-02-15T15:15:39;101686.66;;;4.44;92.92
50364;BME280;36272;59.400;17.982;2024-02-15T15:20:41;101676.38;;;4.41;93.40
50364;BME280;36272;59.400;17.982;2024-02-15T15:25:48;101663.44;;;4.38;93.69
50364;BME280;36272;59.400;17.982;2024-02-15T15:30:49;101680.50;;;4.36;93.37
50364;BME280;36272;59.400;17.982;2024-02-15T15:35:52;101682.28;;;4.35;93.28
50364;BME280;36272;59.400;17.982;2024-02-15T15:40:55;101680.63;;;4.34;93.35
50364;BME280;36272;59.400;17.982;2024-02-15T15:45:58;101679.59;;;4.27;93.60
50364;BME280;36272;59.400;17.982;2024-02-15T15:50:59;101681.56;;;4.25;93.72
50364;BME280;36272;59.400;17.982;2024-02-15T15:56:03;101674.09;;;4.20;93.74
50364;BME280;36272;59.400;17.982;2024-02-15T16:01:10;101663.34;;;4.22;93.80
50364;BME280;36272;59.400;17.982;2024-02-15T16:06:11;101689.16;;;4.20;93.58
50364;BME280;36272;59.400;17.982;2024-02-15T16:11:14;101676.38;;;4.15;93.72
50364;BME280;36272;59.400;17.982;2024-02-15T16:16:18;101687.81;;;4.15;93.73
50364;BME280;36272;59.400;17.982;2024-02-15T16:21:19;101700.38;;;4.13;93.84
50364;BME280;36272;59.400;17.982;2024-02-15T16:26:21;101708.47;;;4.12;93.71
50364;BME280;36272;59.400;17.982;2024-02-15T16:31:23;101703.47;;;4.09;93.73
50364;BME280;36272;59.400;17.982;2024-02-15T16:36:24;101702.50;;;4.10;93.79
50364;BME280;36272;59.400;17.982;2024-02-15T16:41:26;101688.75;;;4.06;93.93
50364;BME280;36272;59.400;17.982;2024-02-15T16:46:31;101696.00;;;4.04;93.96
50364;BME280;36272;59.400;17.982;2024-02-15T16:51:33;101697.97;;;4.02;93.87
50364;BME280;36272;59.400;17.982;2024-02-15T16:56:35;101703.41;;;4.00;94.03
50364;BME280;36272;59.400;17.982;2024-02-15T17:01:55;101701.09;;;3.97;94.01
50364;BME280;36272;59.400;17.982;2024-02-15T17:06:57;101706.41;;;3.97;94.09
50364;BME280;36272;59.400;17.982;2024-02-15T17:11:59;101705.84;;;3.94;93.92
50364;BME280;36272;59.400;17.982;2024-02-15T17:17:00;101702.41;;;3.93;93.98
50364;BME280;36272;59.400;17.982;2024-02-15T17:22:02;101699.88;;;3.92;94.18
50364;BME280;36272;59.400;17.982;2024-02-15T17:27:05;101700.88;;;3.91;94.07
50364;BME280;36272;59.400;17.982;2024-02-15T17:32:07;101699.50;;;3.86;94.22
50364;BME280;36272;59.400;17.982;2024-02-15T17:37:08;101700.50;;;3.85;94.38
50364;BME280;36272;59.400;17.982;2024-02-15T17:42:10;101700.50;;;3.85;94.19
50364;BME280;36272;59.400;17.982;2024-02-15T17:47:12;101705.78;;;3.85;94.18
50364;BME280;36272;59.400;17.982;2024-02-15T17:52:13;101701.47;;;3.84;94.22
50364;BME280;36272;59.400;17.982;2024-02-15T17:57:15;101701.47;;;3.84;94.42
50364;BME280;36272;59.400;17.982;2024-02-15T18:02:17;101699.00;;;3.83;94.33
50364;BME280;36272;59.400;17.982;2024-02-15T18:07:18;101687.56;;;3.82;94.51
50364;BME280;36272;59.400;17.982;2024-02-15T18:12:20;101695.38;;;3.84;94.36
50364;BME280;36272;59.400;17.982;2024-02-15T18:17:24;101681.47;;;3.82;94.39
50364;BME280;36272;59.400;17.982;2024-02-15T18:22:25;101687.88;;;3.79;94.43
50364;BME280;36272;59.400;17.982;2024-02-15T18:27:29;101682.56;;;3.79;94.53
50364;BME280;36272;59.400;17.982;2024-02-15T18:32:30;101682.56;;;3.79;94.34
50364;BME280;36272;59.400;17.982;2024-02-15T18:37:33;101664.03;;;3.79;94.52
50364;BME280;36272;59.400;17.982;2024-02-15T18:42:36;101672.00;;;3.79;94.20
50364;BME280;36272;59.400;17.982;2024-02-15T18:47:38;101664.34;;;3.76;94.48
50364;BME280;36272;59.400;17.982;2024-02-15T18:52:40;101667.00;;;3.76;94.49
50364;BME280;36272;59.400;17.982;2024-02-15T18:57:42;101671.47;;;3.76;94.39
50364;BME280;36272;59.400;17.982;2024-02-15T19:02:43;101662.84;;;3.74;94.26
50364;BME280;36272;59.400;17.982;2024-02-15T19:07:52;101649.78;;;3.72;94.67
50364;BME280;36272;59.400;17.982;2024-02-15T19:12:54;101670.13;;;3.71;94.64
50364;BME280;36272;59.400;17.982;2024-02-15T19:17:56;101662.03;;;3.73;94.45
50364;BME280;36272;59.400;17.982;2024-02-15T19:22:58;101651.59;;;3.71;94.38
50364;BME280;36272;59.400;17.982;2024-02-15T19:27:59;101658.72;;;3.71;94.22
50364;BME280;36272;59.400;17.982;2024-02-15T19:33:06;101643.97;;;3.68;94.54
50364;BME280;36272;59.400;17.982;2024-02-15T19:38:08;101638.97;;;3.65;94.76
50364;BME280;36272;59.400;17.982;2024-02-15T19:43:09;101645.13;;;3.66;94.51
50364;BME280;36272;59.400;17.982;2024-02-15T19:48:12;101645.13;;;3.66;94.72
50364;BME280;36272;59.400;17.982;2024-02-15T19:53:14;101642.59;;;3.64;94.74
50364;BME280;36272;59.400;17.982;2024-02-15T19:58:16;101647.91;;;3.64;94.52
50364;BME280;36272;59.400;17.982;2024-02-15T20:03:22;101634.53;;;3.66;94.79
50364;BME280;36272;59.400;17.982;2024-02-15T20:08:27;101643.16;;;3.68;94.73
50364;BME280;36272;59.400;17.982;2024-02-15T20:13:29;101642.28;;;3.67;94.54
50364;BME280;36272;59.400;17.982;2024-02-15T20:18:34;101623.09;;;3.65;94.72
50364;BME280;36272;59.400;17.982;2024-02-15T20:23:40;101624.06;;;3.64;94.78
50364;BME280;36272;59.400;17.982;2024-02-15T20:28:41;101647.75;;;3.66;94.52
50364;BME280;36272;59.400;17.982;2024-02-15T20:33:43;101639.81;;;3.66;94.42
50364;BME280;36272;59.400;17.982;2024-02-15T20:38:44;101639.81;;;3.66;94.67
50364;BME280;36272;59.400;17.982;2024-02-15T20:43:47;101638.84;;;3.67;94.72
50364;BME280;36272;59.400;17.982;2024-02-15T20:48:53;101633.38;;;3.68;94.50
50364;BME280;36272;59.400;17.982;2024-02-15T20:53:55;101633.69;;;3.65;94.85
50364;BME280;36272;59.400;17.982;2024-02-15T20:58:57;101638.97;;;3.65;94.81
50364;BME280;36272;59.400;17.982;2024-02-15T21:04:04;101617.97;;;3.64;94.89
50364;BME280;36272;59.400;17.982;2024-02-15T21:09:06;101627.41;;;3.66;94.62
50364;BME280;36272;59.400;17.982;2024-02-15T21:14:14;101631.03;;;3.65;94.82
50364;BME280;36272;59.400;17.982;2024-02-15T21:19:15;101631.72;;;3.67;94.85
50364;BME280;36272;59.400;17.982;2024-02-15T21:24:17;101632.88;;;3.65;94.88
50364;BME280;36272;59.400;17.982;2024-02-15T21:29:19;101631.19;;;3.64;94.81
50364;BME280;36272;59.400;17.982;2024-02-15T21:34:21;101620.31;;;3.67;94.95
50364;BME280;36272;59.400;17.982;2024-02-15T21:39:22;101612.38;;;3.67;94.90
50364;BME280;36272;59.400;17.982;2024-02-15T21:44:26;101612.22;;;3.68;94.83
50364;BME280;36272;59.400;17.982;2024-02-15T21:49:28;101602.78;;;3.66;94.81
50364;BME280;36272;59.400;17.982;2024-02-15T21:54:29;101609.56;;;3.68;94.74
50364;BME280;36272;59.400;17.982;2024-02-15T21:59:34;101582.97;;;3.70;95.15
50364;BME280;36272;59.400;17.982;2024-02-15T22:04:37;101589.75;;;3.72;94.80
50364;BME280;36272;59.400;17.982;2024-02-15T22:09:38;101602.28;;;3.70;94.93
50364;BME280;36272;59.400;17.982;2024-02-15T22:14:40;101582.66;;;3.73;94.86
50364;BME280;36272;59.400;17.982;2024-02-15T22:19:42;101582.66;;;3.73;94.77
50364;BME280;36272;59.400;17.982;2024-02-15T22:24:45;101581.31;;;3.77;94.97
50364;BME280;36272;59.400;17.982;2024-02-15T22:29:46;101580.34;;;3.78;94.66
50364;BME280;36272;59.400;17.982;2024-02-15T22:34:48;101563.47;;;3.79;94.96
50364;BME280;36272;59.400;17.982;2024-02-15T22:39:50;101562.50;;;3.80;94.85
50364;BME280;36272;59.400;17.982;2024-02-15T22:44:51;101561.66;;;3.80;95.00
50364;BME280;36272;59.400;17.982;2024-02-15T22:49:54;101565.13;;;3.80;94.78
50364;BME280;36272;59.400;17.982;2024-02-15T22:54:57;101550.09;;;3.81;95.10
50364;BME280;36272;59.400;17.982;2024-02-15T22:59:59;101550.25;;;3.79;95.24
50364;BME280;36272;59.400;17.982;2024-02-15T23:05:01;101546.59;;;3.80;95.08
50364;BME280;36272;59.400;17.982;2024-02-15T23:10:05;101535.22;;;3.80;95.04
50364;BME280;36272;59.400;17.982;2024-02-15T23:15:08;101532.38;;;3.81;95.20
50364;BME280;36272;59.400;17.982;2024-02-15T23:20:10;101535.72;;;3.83;95.33
50364;BME280;36272;59.400;17.982;2024-02-15T23:25:13;101531.94;;;3.86;95.12
50364;BME280;36272;59.400;17.982;2024-02-15T23:30:15;101524.81;;;3.86;95.29
50364;BME280;36272;59.400;17.982;2024-02-15T23:35:21;101509.59;;;3.89;95.36
50364;BME280;36272;59.400;17.982;2024-02-15T23:40:32;101536.91;;;3.89;94.93
50364;BME280;36272;59.400;17.982;2024-02-15T23:45:33;101529.78;;;3.90;95.08
50364;BME280;36272;59.400;17.982;2024-02-15T23:50:36;101534.09;;;3.91;95.31
50364;BME280;36272;59.400;17.982;2024-02-15T23:55:38;101513.59;;;3.93;95.15
